createdAt,value
2023-04-22T00:02:48.239Z,7.45
2023-04-22T00:05:50.555Z,5.40
2023-04-22T00:08:53.156Z,8.57
2023-04-22T00:11:55.167Z,6.17
2023-04-22T00:14:58.544Z,5.78
2023-04-22T00:21:09.450Z,7.10
2023-04-22T00:24:11.421Z,5.40
2023-04-22T00:27:13.225Z,6.85
2023-04-22T00:30:15.355Z,8.60
2023-04-22T00:33:17.172Z,5.18
2023-04-22T00:36:19.118Z,8.20
2023-04-22T00:39:24.114Z,6.88
2023-04-22T00:42:27.285Z,5.50
2023-04-22T00:45:30.820Z,5.45
2023-04-22T00:51:34.905Z,6.13
2023-04-22T00:54:36.911Z,7.53
2023-04-22T00:57:40.050Z,5.63
2023-04-22T01:00:41.953Z,5.32
2023-04-22T01:03:44.111Z,8.48
2023-04-22T01:06:47.479Z,7.45
2023-04-22T01:09:54.665Z,7.22
2023-04-22T01:12:56.467Z,7.00
2023-04-22T01:16:00.030Z,6.45
2023-04-22T01:19:02.491Z,6.32
2023-04-22T01:22:05.929Z,7.00
2023-04-22T01:28:12.472Z,6.53
2023-04-22T01:31:14.850Z,6.53
2023-04-22T01:34:18.572Z,7.22
2023-04-22T01:37:20.472Z,6.80
2023-04-22T01:40:23.428Z,6.55
2023-04-22T01:43:26.083Z,7.63
2023-04-22T01:46:27.998Z,6.15
2023-04-22T01:49:29.915Z,7.10
2023-04-22T01:52:36.580Z,6.35
2023-04-22T01:55:39.300Z,5.65
2023-04-22T01:58:41.573Z,6.57
2023-04-22T02:01:47.404Z,5.78
2023-04-22T02:04:50.082Z,5.30
2023-04-22T02:07:53.444Z,6.03
2023-04-22T02:10:57.037Z,7.10
2023-04-22T02:13:58.909Z,7.75
2023-04-22T02:17:02.320Z,6.43
2023-04-22T02:23:07.109Z,8.73
2023-04-22T02:26:08.947Z,6.38
2023-04-22T02:29:10.931Z,6.47
2023-04-22T02:32:13.055Z,7.78
2023-04-22T02:35:15.063Z,6.07
2023-04-22T02:38:16.857Z,6.57
2023-04-22T02:41:20.975Z,8.15
2023-04-22T02:44:23.347Z,5.93
2023-04-22T02:47:30.115Z,7.13
2023-04-22T02:50:31.886Z,6.28
2023-04-22T02:53:41.450Z,6.85
2023-04-22T02:56:43.444Z,5.97
2023-04-22T02:59:46.178Z,7.30
2023-04-22T03:02:48.148Z,6.85
2023-04-22T03:05:50.912Z,7.22
2023-04-22T03:08:52.753Z,5.30
2023-04-22T03:11:55.504Z,8.98
2023-04-22T03:14:57.292Z,7.93
2023-04-22T03:17:59.323Z,9.00
2023-04-22T03:21:01.270Z,7.28
2023-04-22T03:24:03.179Z,6.50
2023-04-22T03:27:05.558Z,6.57
2023-04-22T03:30:12.811Z,6.20
2023-04-22T03:33:14.656Z,7.35
2023-04-22T03:36:17.419Z,7.28
2023-04-22T03:39:19.230Z,6.55
2023-04-22T03:42:21.069Z,8.27
2023-04-22T03:45:24.286Z,7.03
2023-04-22T03:48:27.793Z,7.05
2023-04-22T03:51:29.770Z,7.18
2023-04-22T03:54:31.716Z,8.32
2023-04-22T03:57:33.557Z,8.45
2023-04-22T04:00:35.481Z,9.10
2023-04-22T04:03:37.552Z,7.72
2023-04-22T04:06:40.433Z,8.40
2023-04-22T04:09:42.472Z,7.25
2023-04-22T04:12:44.546Z,8.13
2023-04-22T04:15:47.282Z,7.40
2023-04-22T04:18:52.395Z,8.85
2023-04-22T04:21:54.317Z,8.90
2023-04-22T04:24:56.208Z,8.88
2023-04-22T04:27:58.298Z,8.70
2023-04-22T04:31:04.995Z,7.95
2023-04-22T04:34:07.413Z,8.75
2023-04-22T04:37:09.356Z,8.65
2023-04-22T04:40:12.433Z,11.10
2023-04-22T04:43:19.094Z,10.82
2023-04-22T04:46:21.147Z,8.70
2023-04-22T04:49:23.041Z,9.88
2023-04-22T04:52:24.837Z,9.77
2023-04-22T04:55:28.296Z,10.07
2023-04-22T04:58:30.264Z,11.13
2023-04-22T05:01:33.824Z,12.25
2023-04-22T05:04:35.713Z,11.60
2023-04-22T05:07:37.929Z,13.02
2023-04-22T05:10:39.850Z,10.90
2023-04-22T05:13:41.774Z,8.90
2023-04-22T05:16:43.761Z,9.88
2023-04-22T05:19:45.615Z,10.85
2023-04-22T05:22:47.598Z,9.35
2023-04-22T05:25:51.438Z,10.15
2023-04-22T05:28:56.197Z,10.98
2023-04-22T05:31:58.386Z,12.45
2023-04-22T05:35:00.404Z,9.88
2023-04-22T05:38:03.935Z,14.52
2023-04-22T05:41:05.985Z,11.88
2023-04-22T05:44:09.202Z,10.70
2023-04-22T05:47:11.210Z,11.02
2023-04-22T05:50:21.257Z,10.20
2023-04-22T05:53:24.792Z,10.10
2023-04-22T05:56:27.754Z,10.25
2023-04-22T05:59:29.628Z,10.48
2023-04-22T06:02:33.128Z,11.60
2023-04-22T06:05:35.159Z,10.77
2023-04-22T06:08:37.301Z,9.95
2023-04-22T06:11:39.100Z,11.55
2023-04-22T06:14:42.534Z,10.80
2023-04-22T06:20:47.402Z,11.70
2023-04-22T06:23:49.316Z,11.32
2023-04-22T06:26:51.469Z,11.63
2023-04-22T06:29:53.356Z,13.57
2023-04-22T06:32:55.739Z,11.65
2023-04-22T06:35:57.600Z,11.03
2023-04-22T06:38:59.713Z,11.30
2023-04-22T06:42:03.392Z,13.52
2023-04-22T06:45:07.233Z,12.32
2023-04-22T06:48:08.959Z,12.25
2023-04-22T06:51:11.056Z,10.98
2023-04-22T06:54:12.848Z,13.48
2023-04-22T06:57:14.952Z,32.17
2023-04-22T07:00:17.178Z,11.95
2023-04-22T07:03:20.742Z,12.63
2023-04-22T07:06:22.724Z,12.48
2023-04-22T07:09:24.792Z,17.10
2023-04-22T07:12:26.817Z,13.25
2023-04-22T07:15:28.643Z,15.18
2023-04-22T07:18:30.658Z,13.35
2023-04-22T07:21:33.897Z,11.15
2023-04-22T07:24:35.900Z,10.82
2023-04-22T07:27:40.756Z,9.73
2023-04-22T07:30:43.214Z,10.70
2023-04-22T07:33:44.981Z,10.40
2023-04-22T07:36:46.869Z,10.18
2023-04-22T07:39:54.174Z,8.02
2023-04-22T07:42:56.630Z,9.18
2023-04-22T07:45:58.730Z,7.93
2023-04-22T07:49:00.741Z,8.98
2023-04-22T07:52:07.336Z,8.75
2023-04-22T07:55:09.622Z,8.75
2023-04-22T07:58:12.172Z,7.75
2023-04-22T08:01:13.992Z,7.90
2023-04-22T08:04:20.924Z,7.25
2023-04-22T08:10:28.322Z,9.65
2023-04-22T08:13:30.475Z,9.33
2023-04-22T08:16:32.468Z,6.75
2023-04-22T08:19:34.201Z,7.30
2023-04-22T08:22:36.730Z,9.23
2023-04-22T08:25:38.782Z,6.30
2023-04-22T08:28:41.562Z,5.63
2023-04-22T08:31:43.442Z,6.43
2023-04-22T08:34:51.817Z,5.97
2023-04-22T08:37:54.097Z,7.22
2023-04-22T08:40:57.982Z,6.32
2023-04-22T08:44:01.498Z,6.70
2023-04-22T08:47:03.837Z,6.43
2023-04-22T08:50:07.212Z,5.13
2023-04-22T08:53:09.031Z,4.38
2023-04-22T08:56:14.200Z,4.85
2023-04-22T08:59:17.494Z,4.55
2023-04-22T09:02:24.428Z,3.90
2023-04-22T09:05:28.105Z,5.53
2023-04-22T09:08:30.428Z,5.47
2023-04-22T09:11:33.771Z,4.15
2023-04-22T09:14:36.984Z,5.05
2023-04-22T09:17:39.274Z,5.38
2023-04-22T09:20:43.399Z,4.50
2023-04-22T09:23:54.557Z,6.32
2023-04-22T09:26:57.382Z,7.57
2023-04-22T09:30:00.179Z,5.10
2023-04-22T09:33:04.656Z,5.65
2023-04-22T09:36:10.133Z,4.18
2023-04-22T09:39:12.079Z,4.90
2023-04-22T09:42:14.733Z,3.70
2023-04-22T09:45:30.250Z,6.88
2023-04-22T09:48:32.058Z,4.57
2023-04-22T09:51:34.661Z,4.85
2023-04-22T09:54:37.826Z,5.47
2023-04-22T09:57:39.627Z,6.85
2023-04-22T10:00:48.238Z,3.33
2023-04-22T10:03:50.641Z,3.95
2023-04-22T10:06:56.475Z,5.22
2023-04-22T10:09:58.484Z,4.10
2023-04-22T10:13:03.946Z,5.80
2023-04-22T10:16:07.005Z,4.85
2023-04-22T10:19:13.890Z,4.35
2023-04-22T10:22:16.175Z,4.90
2023-04-22T10:25:26.086Z,5.30
2023-04-22T10:28:30.235Z,6.57
2023-04-22T10:31:32.915Z,4.57
2023-04-22T10:34:37.221Z,7.53
2023-04-22T10:37:42.596Z,7.75
2023-04-22T10:41:00.517Z,6.82
2023-04-22T10:44:08.054Z,4.45
2023-04-22T10:47:09.950Z,3.85
2023-04-22T10:50:20.181Z,4.50
2023-04-22T10:53:38.355Z,3.70
2023-04-22T10:57:03.027Z,5.45
2023-04-22T11:00:41.870Z,5.43
2023-04-22T11:03:54.087Z,3.90
2023-04-22T11:07:20.793Z,3.35
2023-04-22T11:10:52.446Z,4.80
2023-04-22T11:13:55.387Z,5.47
2023-04-22T11:16:57.364Z,6.82
2023-04-22T11:20:00.188Z,3.05
2023-04-22T11:23:08.129Z,6.38
2023-04-22T11:26:09.916Z,4.40
2023-04-22T11:29:13.232Z,5.65
2023-04-22T11:32:15.073Z,3.17
2023-04-22T11:35:24.555Z,6.45
2023-04-22T11:38:26.478Z,3.20
2023-04-22T11:41:30.055Z,7.70
2023-04-22T11:44:32.347Z,3.85
2023-04-22T11:47:37.804Z,3.60
2023-04-22T11:50:42.084Z,5.82
2023-04-22T11:53:51.303Z,4.97
2023-04-22T11:56:53.181Z,4.32
2023-04-22T11:59:59.271Z,4.30
2023-04-22T12:03:03.908Z,2.38
2023-04-22T12:06:06.429Z,7.82
2023-04-22T12:09:08.402Z,2.35
2023-04-22T12:12:13.364Z,4.15
2023-04-22T12:15:17.502Z,4.68
2023-04-22T12:18:37.498Z,3.75
2023-04-22T12:21:42.163Z,4.25
2023-04-22T12:24:48.072Z,5.43
2023-04-22T12:27:49.904Z,5.00
2023-04-22T12:30:51.873Z,4.03
2023-04-22T12:33:54.080Z,3.40
2023-04-22T12:36:56.392Z,4.00
2023-04-22T12:39:58.497Z,2.83
2023-04-22T12:43:06.035Z,2.83
2023-04-22T12:46:09.801Z,5.10
2023-04-22T12:49:14.384Z,5.32
2023-04-22T12:52:16.128Z,3.95
2023-04-22T12:55:23.376Z,3.22
2023-04-22T12:58:26.095Z,5.28
2023-04-22T13:01:27.950Z,4.22
2023-04-22T13:04:29.806Z,1.83
2023-04-22T13:07:31.821Z,3.65
2023-04-22T13:10:34.104Z,2.53
2023-04-22T13:13:35.980Z,2.67
2023-04-22T13:16:37.950Z,2.40
2023-04-22T13:19:40.964Z,1.80
2023-04-22T13:22:43.191Z,2.95
2023-04-22T13:25:45.113Z,4.72
2023-04-22T13:28:47.071Z,2.30
2023-04-22T13:31:53.790Z,1.70
2023-04-22T13:34:55.591Z,2.78
2023-04-22T13:37:58.437Z,2.40
2023-04-22T13:41:01.992Z,1.77
2023-04-22T13:44:05.756Z,3.15
2023-04-22T13:47:08.143Z,3.33
2023-04-22T13:50:12.075Z,2.33
2023-04-22T13:53:14.186Z,1.60
2023-04-22T13:56:16.266Z,2.78
2023-04-22T13:59:18.176Z,1.95
2023-04-22T14:02:20.959Z,1.90
2023-04-22T14:05:22.918Z,1.48
2023-04-22T14:08:25.714Z,1.58
2023-04-22T14:11:27.503Z,1.63
2023-04-22T14:14:35.635Z,1.65
2023-04-22T14:17:37.448Z,1.48
2023-04-22T14:20:40.328Z,1.48
2023-04-22T14:23:42.831Z,1.35
2023-04-22T14:26:44.819Z,2.33
2023-04-22T14:29:46.813Z,1.60
2023-04-22T14:32:50.346Z,1.60
2023-04-22T14:35:53.447Z,1.40
2023-04-22T14:38:56.010Z,2.08
2023-04-22T14:41:58.782Z,2.70
2023-04-22T14:45:00.729Z,2.28
2023-04-22T14:48:03.499Z,3.63
2023-04-22T14:51:09.085Z,4.45
2023-04-22T14:54:11.002Z,3.20
2023-04-22T14:57:12.798Z,4.07
2023-04-22T15:00:15.021Z,2.10
2023-04-22T15:03:23.248Z,3.35
2023-04-22T15:06:25.706Z,4.43
2023-04-22T15:09:27.922Z,2.33
2023-04-22T15:12:29.662Z,3.55
2023-04-22T15:15:31.416Z,6.05
2023-04-22T15:18:33.450Z,1.90
2023-04-22T15:21:36.123Z,2.40
2023-04-22T15:24:37.843Z,3.28
2023-04-22T15:27:40.646Z,4.68
2023-04-22T15:30:42.760Z,3.33
2023-04-22T15:33:44.931Z,3.88
2023-04-22T15:36:46.733Z,3.75
2023-04-22T15:39:48.745Z,3.10
2023-04-22T15:42:51.813Z,2.63
2023-04-22T15:45:58.361Z,4.53
2023-04-22T15:49:00.686Z,2.55
2023-04-22T15:52:02.586Z,3.88
2023-04-22T15:55:05.583Z,3.00
2023-04-22T15:58:07.401Z,3.70
2023-04-22T16:01:19.010Z,3.45
2023-04-22T16:04:21.626Z,3.85
2023-04-22T16:07:23.693Z,3.58
2023-04-22T16:10:27.485Z,3.22
2023-04-22T16:13:29.728Z,5.47
2023-04-22T16:16:35.510Z,3.63
2023-04-22T16:19:37.412Z,4.20
2023-04-22T16:22:39.272Z,5.15
2023-04-22T16:25:41.917Z,5.07
2023-04-22T16:28:43.836Z,5.30
2023-04-22T16:31:45.917Z,4.55
2023-04-22T16:34:47.704Z,4.72
2023-04-22T16:37:49.783Z,4.40
2023-04-22T16:40:54.322Z,6.28
2023-04-22T16:44:03.513Z,4.38
2023-04-22T16:47:06.869Z,4.93
2023-04-22T16:50:12.507Z,4.68
2023-04-22T16:53:15.047Z,4.93
2023-04-22T16:56:17.057Z,5.13
2023-04-22T16:59:18.908Z,5.20
2023-04-22T17:02:21.010Z,5.00
2023-04-22T17:05:22.890Z,5.15
2023-04-22T17:08:24.826Z,5.47
2023-04-22T17:11:26.865Z,8.00
2023-04-22T17:14:29.018Z,8.88
2023-04-22T17:17:30.854Z,9.05
2023-04-22T17:20:32.655Z,10.18
2023-04-22T17:23:36.066Z,9.32
2023-04-22T17:29:40.062Z,10.40
2023-04-22T17:32:42.110Z,11.30
2023-04-22T17:35:44.062Z,9.77
2023-04-22T17:38:46.102Z,11.15
2023-04-22T17:41:47.883Z,10.25
2023-04-22T17:44:50.654Z,10.30
2023-04-22T17:47:52.528Z,10.82
2023-04-22T17:50:54.516Z,10.38
2023-04-22T17:53:57.161Z,10.73
2023-04-22T17:56:59.075Z,10.85
2023-04-22T18:00:01.111Z,10.70
2023-04-22T18:03:05.063Z,9.65
2023-04-22T18:06:07.467Z,10.70
2023-04-22T18:09:09.472Z,12.77
2023-04-22T18:12:11.449Z,10.98
2023-04-22T18:15:13.250Z,9.65
2023-04-22T18:18:16.197Z,11.35
2023-04-22T18:21:18.076Z,10.15
2023-04-22T18:24:20.061Z,9.50
2023-04-22T18:27:21.787Z,9.32
2023-04-22T18:30:24.597Z,9.25
2023-04-22T18:33:26.947Z,10.57
2023-04-22T18:36:29.718Z,9.82
2023-04-22T18:39:32.046Z,10.20
2023-04-22T18:42:35.286Z,10.38
2023-04-22T18:45:37.150Z,11.75
2023-04-22T18:48:39.883Z,10.27
2023-04-22T18:51:42.177Z,10.98
2023-04-22T18:54:44.426Z,11.18
2023-04-22T18:57:46.355Z,12.80
2023-04-22T19:00:48.303Z,10.60
2023-04-22T19:03:50.400Z,11.15
2023-04-22T19:06:53.089Z,12.77
2023-04-22T19:09:54.960Z,13.57
2023-04-22T19:12:56.782Z,11.98
2023-04-22T19:15:58.690Z,12.43
2023-04-22T19:19:01.352Z,12.95
2023-04-22T19:22:03.665Z,13.27
2023-04-22T19:25:07.979Z,13.15
2023-04-22T19:28:09.807Z,12.48
2023-04-22T19:31:11.607Z,13.25
2023-04-22T19:34:13.393Z,13.77
2023-04-22T19:37:15.590Z,12.73
2023-04-22T19:40:18.723Z,14.25
2023-04-22T19:43:22.801Z,13.23
2023-04-22T19:46:24.821Z,14.23
2023-04-22T19:49:27.094Z,14.48
2023-04-22T19:52:29.842Z,15.07
2023-04-22T19:55:33.783Z,13.52
2023-04-22T19:58:36.010Z,13.05
2023-04-22T20:01:38.418Z,14.48
2023-04-22T20:04:41.071Z,14.13
2023-04-22T20:07:49.017Z,15.00
2023-04-22T20:10:52.166Z,15.05
2023-04-22T20:13:54.463Z,16.00
2023-04-22T20:16:56.733Z,15.07
2023-04-22T20:20:04.928Z,14.48
2023-04-22T20:23:10.580Z,14.13
2023-04-22T20:26:13.321Z,17.15
2023-04-22T20:29:17.404Z,14.73
2023-04-22T20:32:19.513Z,15.60
2023-04-22T20:35:21.580Z,16.25
2023-04-22T20:38:25.365Z,16.52
2023-04-22T20:41:40.990Z,15.98
2023-04-22T20:44:47.938Z,15.13
2023-04-22T20:47:49.834Z,15.25
2023-04-22T20:50:56.361Z,14.57
2023-04-22T20:53:58.486Z,16.75
2023-04-22T20:57:00.596Z,17.83
2023-04-22T21:00:02.381Z,16.98
2023-04-22T21:03:09.051Z,18.13
2023-04-22T21:06:11.171Z,16.88
2023-04-22T21:09:14.898Z,17.15
2023-04-22T21:12:19.285Z,18.38
2023-04-22T21:15:21.452Z,19.13
2023-04-22T21:18:25.664Z,18.48
2023-04-22T21:21:33.885Z,17.60
2023-04-22T21:24:36.326Z,20.67
2023-04-22T21:27:39.087Z,19.05
2023-04-22T21:30:41.364Z,18.05
2023-04-22T21:33:46.273Z,19.83
2023-04-22T21:36:48.274Z,19.40
2023-04-22T21:39:52.502Z,18.60
2023-04-22T21:42:55.468Z,19.73
2023-04-22T21:45:57.295Z,19.13
2023-04-22T21:48:59.922Z,20.27
2023-04-22T21:52:02.724Z,19.20
2023-04-22T21:55:05.902Z,17.67
2023-04-22T21:58:08.196Z,18.02
2023-04-22T22:01:10.146Z,21.67
2023-04-22T22:04:14.780Z,21.15
2023-04-22T22:07:18.431Z,19.63
2023-04-22T22:10:21.041Z,21.40
2023-04-22T22:13:22.811Z,19.13
2023-04-22T22:16:25.866Z,19.05
2023-04-22T22:19:30.566Z,20.88
2023-04-22T22:22:33.692Z,19.50
2023-04-22T22:25:36.458Z,22.35
2023-04-22T22:28:38.690Z,20.58
2023-04-22T22:31:41.387Z,19.67
2023-04-22T22:34:48.816Z,21.80
2023-04-22T22:37:50.851Z,20.52
2023-04-22T22:40:52.689Z,19.00
2023-04-22T22:43:55.026Z,18.88
2023-04-22T22:46:58.608Z,19.13
2023-04-22T22:50:00.659Z,20.00
2023-04-22T22:53:02.632Z,22.58
2023-04-22T22:56:04.563Z,20.48
2023-04-22T22:59:06.528Z,23.88
2023-04-22T23:02:08.536Z,21.27
2023-04-22T23:05:13.333Z,23.42
2023-04-22T23:08:15.127Z,21.48
2023-04-22T23:11:16.989Z,23.92
2023-04-22T23:14:20.091Z,22.05
2023-04-22T23:17:23.234Z,23.60
2023-04-22T23:20:26.030Z,21.55
2023-04-22T23:23:31.738Z,23.00
2023-04-22T23:26:34.561Z,23.30
2023-04-22T23:29:38.420Z,22.33
2023-04-22T23:32:42.690Z,21.48
2023-04-22T23:35:47.432Z,22.48
2023-04-22T23:38:49.686Z,21.15
2023-04-22T23:41:51.470Z,20.42
2023-04-22T23:44:56.453Z,21.17
2023-04-22T23:48:00.587Z,22.25
2023-04-22T23:51:02.391Z,22.20
2023-04-22T23:54:04.307Z,20.77
2023-04-22T23:57:06.540Z,21.05
